KEKO/EKO METAR and TAF weather

Enter ICAO airport designator
Station Type Date Time Source
KEKO METAR 2019/08/21 21:56 UTC NOAA

KEKO 212156Z AUTO VRB04KT 10SM FEW110 34/M02 A2999 RMK AO2 SLP095 T03441022


Station Type Date Time Source
KEKO Decoded METAR 2019/08/21 21:56 UTC NOAA

Station name not available
Aug 21, 2019 - 05:56 PM EDT / 2019.08.21 2156 UTC
Wind: Variable at 5 MPH (4 KT):0
Visibility: 10 mile(s):0
Sky conditions: mostly clear
Temperature: 93.9 F (34.4 C)
Dew Point: 28.0 F (-2.2 C)
Relative Humidity: 9%
Pressure (altimeter): 29.99 in. Hg (1015 hPa)
ob: KEKO 212156Z AUTO VRB04KT 10SM FEW110 34/M02 A2999 RMK AO2 SLP095 T03441022
cycle: 22

Station Type Date Time Source
KEKO TAF 2019/08/21 18:33 UTC NOAA

TAF KEKO 211730Z 2118/2218 VRB03KT P6SM SCT250
FM212200 25010KT P6SM SCT250
FM220500 VRB05KT P6SM BKN150

Example: see airport list